Time;durP1;ratioP1;P1;durP2;ratioP2;P2;SDS_P1;SDS_P2;PMS_P1;PMS_P2;Temp;Humidity;BMP_temperature;BMP_pressure;BME280_temperature;BME280_humidity;BME280_pressure;Samples;Min_cycle;Max_cycle;Signal;HPM_P1;HPM_P2
2022/03/08 00:02:22;;;;;;;29.35;20.23;;;1.20;64.50;;;;;;5080793;28;20040;-74
2022/03/08 00:04:48;;;;;;;25.58;18.15;;;1.10;64.60;;;;;;5076645;28;20415;-75
2022/03/08 00:07:14;;;;;;;23.65;16.67;;;1.10;64.70;;;;;;5068856;28;20064;-75
2022/03/08 00:09:40;;;;;;;26.45;18.13;;;1.10;64.80;;;;;;5066163;28;20068;-75
2022/03/08 00:12:07;;;;;;;22.73;16.80;;;1.10;64.90;;;;;;5084967;28;20112;-75
2022/03/08 00:14:34;;;;;;;22.75;17.25;;;1.10;64.80;;;;;;5070831;28;20423;-74
2022/03/08 00:17:00;;;;;;;23.58;16.55;;;1.10;64.70;;;;;;5075873;28;20149;-74
2022/03/08 00:19:26;;;;;;;22.60;16.38;;;1.00;64.80;;;;;;5079608;28;20054;-74
2022/03/08 00:21:52;;;;;;;23.75;16.58;;;1.00;64.90;;;;;;5079474;28;20155;-75
2022/03/08 00:24:18;;;;;;;22.80;15.48;;;1.00;65.00;;;;;;5078528;28;20039;-75
2022/03/08 00:26:44;;;;;;;33.80;20.58;;;1.00;65.00;;;;;;5077082;28;20086;-74
2022/03/08 00:29:10;;;;;;;26.38;17.02;;;1.00;65.20;;;;;;5081298;28;20312;-75
2022/03/08 00:31:35;;;;;;;23.67;15.48;;;1.00;65.10;;;;;;5083379;28;20622;-76
2022/03/08 00:34:01;;;;;;;20.38;14.52;;;1.00;65.10;;;;;;5099507;28;20071;-75
2022/03/08 00:36:27;;;;;;;20.25;15.18;;;0.90;65.10;;;;;;5107802;28;20040;-76
2022/03/08 00:38:53;;;;;;;19.17;14.05;;;0.90;65.30;;;;;;5095484;28;20047;-76
2022/03/08 00:41:20;;;;;;;20.90;14.57;;;0.90;65.30;;;;;;5078432;28;20048;-75
2022/03/08 00:43:46;;;;;;;19.92;14.07;;;0.80;65.40;;;;;;5076307;28;20081;-75
2022/03/08 00:46:12;;;;;;;20.63;14.88;;;0.80;65.40;;;;;;5079739;28;20032;-75
2022/03/08 00:48:37;;;;;;;20.42;15.25;;;0.70;65.60;;;;;;5079883;28;20505;-75
2022/03/08 00:51:03;;;;;;;21.35;14.85;;;0.70;65.80;;;;;;5076207;28;20084;-75
2022/03/08 00:53:29;;;;;;;19.92;14.77;;;0.70;65.80;;;;;;5068383;28;20546;-75
2022/03/08 00:55:55;;;;;;;20.23;14.63;;;0.60;66.00;;;;;;5074940;28;20521;-75
2022/03/08 00:58:21;;;;;;;20.65;15.15;;;0.60;66.00;;;;;;5068816;28;20123;-75
2022/03/08 01:00:46;;;;;;;20.48;15.10;;;0.60;66.10;;;;;;5076167;28;20055;-76
2022/03/08 01:03:12;;;;;;;19.65;15.18;;;0.60;66.20;;;;;;5069644;28;20458;-75
2022/03/08 01:05:38;;;;;;;21.40;14.68;;;0.60;66.30;;;;;;5075592;28;20505;-74
2022/03/08 01:08:04;;;;;;;19.52;14.75;;;0.50;66.60;;;;;;5079666;28;20036;-74
2022/03/08 01:10:31;;;;;;;19.73;14.55;;;0.50;66.50;;;;;;5074812;28;20040;-75
2022/03/08 01:12:57;;;;;;;19.95;14.65;;;0.50;66.70;;;;;;5075647;28;20060;-74
2022/03/08 01:15:24;;;;;;;21.90;15.30;;;0.60;66.70;;;;;;5073132;28;20047;-75
2022/03/08 01:17:51;;;;;;;21.45;15.30;;;0.60;66.60;;;;;;5080876;28;20038;-76
2022/03/08 01:20:17;;;;;;;20.65;14.77;;;0.50;66.60;;;;;;5077726;28;20032;-75
2022/03/08 01:22:43;;;;;;;19.80;14.52;;;0.60;66.50;;;;;;5075019;28;20028;-74
2022/03/08 01:25:12;;;;;;;22.25;15.07;;;0.50;66.30;;;;;;5077040;28;20059;-76
2022/03/08 01:27:38;;;;;;;19.73;14.75;;;0.50;66.60;;;;;;5082907;28;20036;-75
2022/03/08 01:30:06;;;;;;;21.10;15.43;;;0.50;66.70;;;;;;5075113;28;20078;-74
2022/03/08 01:32:32;;;;;;;21.98;15.35;;;0.50;66.70;;;;;;5075909;28;20028;-77
2022/03/08 01:34:57;;;;;;;20.88;16.15;;;0.40;66.90;;;;;;5074945;28;20040;-75
2022/03/08 01:37:23;;;;;;;20.08;14.77;;;0.50;66.90;;;;;;5075593;27;20059;-74
2022/03/08 01:39:48;;;;;;;22.70;15.43;;;0.40;67.10;;;;;;5076079;28;20471;-76
2022/03/08 01:42:16;;;;;;;21.00;15.30;;;0.40;66.80;;;;;;5074423;28;20040;-75
2022/03/08 01:44:46;;;;;;;20.00;14.82;;;0.50;67.10;;;;;;5071624;28;20036;-74
2022/03/08 01:47:14;;;;;;;21.40;15.45;;;0.50;67.10;;;;;;5081828;28;20031;-75
2022/03/08 01:49:40;;;;;;;20.77;15.07;;;0.50;67.00;;;;;;5077934;28;20738;-76
2022/03/08 01:52:06;;;;;;;19.98;15.30;;;0.40;67.00;;;;;;5081257;28;20129;-74
2022/03/08 01:54:32;;;;;;;21.02;14.98;;;0.40;67.00;;;;;;5068497;28;20513;-76
2022/03/08 01:56:58;;;;;;;23.45;15.55;;;0.40;67.30;;;;;;5078987;28;20116;-74
2022/03/08 01:59:24;;;;;;;22.33;15.63;;;0.40;67.30;;;;;;5070826;28;20523;-75
2022/03/08 02:01:49;;;;;;;22.58;15.45;;;0.40;67.10;;;;;;5074431;28;20526;-75
2022/03/08 02:04:15;;;;;;;22.65;15.50;;;0.30;67.10;;;;;;5075160;28;20040;-76
2022/03/08 02:06:44;;;;;;;19.02;14.77;;;0.30;67.20;;;;;;5081688;28;20040;-75
2022/03/08 02:09:10;;;;;;;21.48;15.48;;;0.30;67.30;;;;;;5074030;28;20408;-77
2022/03/08 02:11:37;;;;;;;22.08;15.05;;;0.30;67.40;;;;;;5072900;28;20283;-74
2022/03/08 02:14:02;;;;;;;22.52;15.20;;;0.20;67.50;;;;;;5076491;28;20126;-74
2022/03/08 02:16:28;;;;;;;21.38;15.88;;;0.20;67.60;;;;;;5082003;28;20054;-74
2022/03/08 02:18:54;;;;;;;21.67;15.45;;;0.20;67.60;;;;;;5071026;28;20043;-75
2022/03/08 02:21:19;;;;;;;22.90;15.80;;;0.20;67.60;;;;;;5074357;28;20521;-75
2022/03/08 02:23:45;;;;;;;20.77;15.20;;;0.20;67.50;;;;;;5079638;28;20068;-75
2022/03/08 02:26:11;;;;;;;20.85;15.35;;;0.20;67.30;;;;;;5079307;28;20046;-74
2022/03/08 02:28:38;;;;;;;20.50;15.55;;;0.30;66.90;;;;;;5072408;28;20024;-74
2022/03/08 02:31:04;;;;;;;20.38;15.35;;;0.30;66.40;;;;;;5072524;28;20052;-75
2022/03/08 02:33:29;;;;;;;22.50;16.33;;;0.40;66.30;;;;;;5074100;28;20358;-74
2022/03/08 02:35:55;;;;;;;24.63;16.45;;;0.40;66.00;;;;;;5071173;28;20373;-75
2022/03/08 02:38:21;;;;;;;21.83;15.70;;;0.40;65.80;;;;;;5074265;28;20093;-74
2022/03/08 02:40:47;;;;;;;21.65;15.30;;;0.40;66.00;;;;;;5071106;28;20395;-75
2022/03/08 02:43:13;;;;;;;22.60;16.02;;;0.40;66.00;;;;;;5074326;28;20069;-75
2022/03/08 02:45:39;;;;;;;23.90;16.60;;;0.40;65.90;;;;;;5078354;28;20054;-74
2022/03/08 02:48:05;;;;;;;23.10;16.52;;;0.50;65.50;;;;;;5079306;28;20119;-74
2022/03/08 02:50:31;;;;;;;23.92;16.63;;;0.50;65.30;;;;;;5078263;28;20085;-74
2022/03/08 02:52:58;;;;;;;24.73;16.35;;;0.50;65.30;;;;;;5072256;28;20056;-75
2022/03/08 02:55:28;;;;;;;20.73;16.42;;;0.50;65.20;;;;;;5071020;28;20044;-75
2022/03/08 02:57:54;;;;;;;22.02;16.60;;;0.60;65.30;;;;;;5074201;28;20036;-74
2022/03/08 03:00:22;;;;;;;22.60;16.35;;;0.50;65.20;;;;;;5075001;28;20035;-74
2022/03/08 03:02:48;;;;;;;22.38;16.35;;;0.60;65.30;;;;;;5078615;28;20509;-74
2022/03/08 03:05:14;;;;;;;22.88;16.40;;;0.50;65.40;;;;;;5074804;28;20379;-74
2022/03/08 03:07:40;;;;;;;23.92;17.48;;;0.50;65.30;;;;;;5080163;28;20028;-75
2022/03/08 03:10:12;;;;;;;23.27;16.02;;;0.50;65.30;;;;;;5081230;28;20055;-75
2022/03/08 03:12:37;;;;;;;22.67;16.65;;;0.40;65.50;;;;;;5091190;28;20027;-75
2022/03/08 03:15:06;;;;;;;23.90;16.67;;;0.40;65.70;;;;;;5077149;28;20043;-74
2022/03/08 03:17:31;;;;;;;23.20;16.85;;;0.40;65.70;;;;;;5075761;28;20425;-76
2022/03/08 03:19:57;;;;;;;23.05;16.85;;;0.30;66.00;;;;;;5076374;28;20039;-75
2022/03/08 03:22:23;;;;;;;23.10;16.33;;;0.30;65.90;;;;;;5071651;28;20035;-75
2022/03/08 03:24:48;;;;;;;24.92;17.67;;;0.30;65.90;;;;;;5081572;28;20134;-75
2022/03/08 03:27:14;;;;;;;22.70;17.60;;;0.30;66.10;;;;;;5083412;28;20438;-75
2022/03/08 03:29:40;;;;;;;24.02;17.40;;;0.30;66.20;;;;;;5086649;28;20056;-74
2022/03/08 03:32:06;;;;;;;24.45;17.73;;;0.20;66.20;;;;;;5082204;28;20043;-77
2022/03/08 03:34:31;;;;;;;22.00;16.10;;;0.20;66.30;;;;;;5076797;28;20527;-76
2022/03/08 03:36:57;;;;;;;24.05;16.83;;;0.20;66.40;;;;;;5080583;28;20447;-75
2022/03/08 03:39:23;;;;;;;24.15;18.27;;;0.20;66.40;;;;;;5097626;28;20036;-75
2022/03/08 03:41:49;;;;;;;24.00;17.15;;;0.10;66.40;;;;;;5072895;28;20044;-75
2022/03/08 03:44:15;;;;;;;23.55;17.10;;;0.10;66.40;;;;;;5078500;28;20044;-76
2022/03/08 03:46:40;;;;;;;24.42;16.98;;;0.10;66.30;;;;;;5077037;28;20047;-74
2022/03/08 03:49:06;;;;;;;23.75;17.75;;;0.10;66.30;;;;;;5070958;28;20036;-74
2022/03/08 03:51:32;;;;;;;23.15;17.13;;;0.10;66.50;;;;;;5072718;28;20032;-77
2022/03/08 03:53:57;;;;;;;24.30;17.33;;;0.10;66.50;;;;;;5075069;28;20040;-75
2022/03/08 03:56:23;;;;;;;26.02;17.92;;;0.10;66.60;;;;;;5073685;28;20041;-75
2022/03/08 03:58:49;;;;;;;25.95;17.65;;;0.00;66.80;;;;;;5074862;28;20035;-75
2022/03/08 04:01:15;;;;;;;24.25;16.23;;;0.00;66.70;;;;;;5077745;28;20151;-75
2022/03/08 04:03:41;;;;;;;24.73;16.85;;;0.00;66.80;;;;;;5079723;28;20469;-74
2022/03/08 04:06:07;;;;;;;27.60;17.90;;;0.10;66.70;;;;;;5087654;28;20095;-74
2022/03/08 04:08:34;;;;;;;25.27;16.80;;;0.00;66.70;;;;;;5073554;28;20483;-74
2022/03/08 04:10:59;;;;;;;24.73;17.73;;;0.00;66.90;;;;;;5070640;28;20040;-73
2022/03/08 04:13:25;;;;;;;25.20;17.85;;;0.00;67.00;;;;;;5079884;28;20040;-74
2022/03/08 04:15:52;;;;;;;22.83;16.80;;;0.00;67.10;;;;;;5077092;28;20054;-75
2022/03/08 04:18:18;;;;;;;25.30;18.05;;;0.00;67.30;;;;;;5084434;28;20126;-75
2022/03/08 04:20:43;;;;;;;23.10;16.98;;;0.00;67.40;;;;;;5077325;28;20474;-75
2022/03/08 04:23:09;;;;;;;23.35;17.30;;;-3276.70;67.20;;;;;;5076089;28;20032;-75
2022/03/08 04:25:35;;;;;;;23.42;16.75;;;0.00;67.30;;;;;;5080069;28;20032;-75
2022/03/08 04:28:02;;;;;;;24.90;17.33;;;-3276.70;67.30;;;;;;5083223;28;20048;-75
2022/03/08 04:30:28;;;;;;;24.35;17.60;;;-3276.70;67.50;;;;;;5088038;28;20036;-75
2022/03/08 04:32:54;;;;;;;23.30;17.30;;;-3276.70;67.40;;;;;;5086132;27;20417;-76
2022/03/08 04:35:20;;;;;;;23.98;16.83;;;-3276.70;67.30;;;;;;5088601;28;20051;-76
2022/03/08 04:37:47;;;;;;;23.75;17.20;;;-3276.70;67.30;;;;;;5082348;28;20031;-76
2022/03/08 04:40:13;;;;;;;24.00;17.83;;;-3276.70;67.20;;;;;;5082139;28;20061;-77
2022/03/08 04:42:40;;;;;;;23.65;17.45;;;-3276.70;67.20;;;;;;5071881;28;20047;-75
2022/03/08 04:45:07;;;;;;;24.85;18.77;;;-3276.70;67.30;;;;;;5075058;28;20048;-74
2022/03/08 04:47:36;;;;;;;24.70;17.17;;;-3276.70;67.40;;;;;;5080354;28;20093;-74
2022/03/08 04:50:07;;;;;;;24.77;17.50;;;-3276.70;67.40;;;;;;5073678;28;20329;-75
2022/03/08 04:52:32;;;;;;;26.77;17.95;;;-3276.70;67.30;;;;;;5077808;28;20024;-75
2022/03/08 04:54:58;;;;;;;29.08;18.95;;;-3276.70;67.50;;;;;;5077180;28;20552;-75
2022/03/08 04:57:24;;;;;;;26.33;17.52;;;-3276.60;67.60;;;;;;5071977;28;20032;-74
2022/03/08 04:59:49;;;;;;;25.33;17.77;;;-3276.60;67.50;;;;;;5074240;28;20025;-75
2022/03/08 05:02:15;;;;;;;28.33;17.50;;;-3276.70;67.30;;;;;;5080100;28;20521;-74
2022/03/08 05:04:40;;;;;;;24.38;17.77;;;-3276.70;67.30;;;;;;5075528;28;20394;-73
2022/03/08 05:07:06;;;;;;;25.23;17.48;;;-3276.60;67.20;;;;;;5069949;28;20166;-73
2022/03/08 05:09:32;;;;;;;22.42;16.42;;;-3276.60;67.50;;;;;;5072981;28;20565;-76
2022/03/08 05:11:58;;;;;;;28.25;18.60;;;-3276.50;67.60;;;;;;5075311;28;20513;-75
2022/03/08 05:14:24;;;;;;;23.08;17.40;;;-3276.50;68.00;;;;;;5073885;28;20413;-75
2022/03/08 05:16:51;;;;;;;26.92;18.80;;;-3276.50;67.90;;;;;;5073402;28;21396;-74
2022/03/08 05:19:17;;;;;;;24.77;17.98;;;-3276.50;67.80;;;;;;5075628;28;20459;-74
2022/03/08 05:21:43;;;;;;;23.80;17.58;;;-3276.50;67.80;;;;;;5085886;28;20047;-74
2022/03/08 05:24:09;;;;;;;27.38;17.50;;;-3276.50;67.80;;;;;;5075933;28;20107;-74
2022/03/08 05:26:37;;;;;;;25.65;17.95;;;-3276.50;67.80;;;;;;5076260;28;20364;-74
2022/03/08 05:29:04;;;;;;;23.90;16.95;;;-3276.50;67.60;;;;;;5073384;28;20541;-74
2022/03/08 05:31:29;;;;;;;28.98;18.33;;;-3276.50;67.60;;;;;;5076222;28;20041;-74
2022/03/08 05:33:55;;;;;;;26.17;17.48;;;-3276.50;67.80;;;;;;5074877;28;20047;-74
2022/03/08 05:36:20;;;;;;;28.42;18.60;;;-3276.40;67.80;;;;;;5067065;28;20052;-73
2022/03/08 05:38:46;;;;;;;28.10;18.50;;;-3276.40;67.80;;;;;;5076847;28;20297;-74
2022/03/08 05:41:12;;;;;;;27.70;19.95;;;-3276.30;68.10;;;;;;5075183;28;20123;-74
2022/03/08 05:43:37;;;;;;;26.75;18.25;;;-3276.40;68.20;;;;;;5069026;28;20571;-74
2022/03/08 05:46:03;;;;;;;27.77;19.08;;;-3276.30;68.20;;;;;;5070657;28;20081;-76
2022/03/08 05:48:29;;;;;;;29.10;18.90;;;-3276.30;68.30;;;;;;5068445;27;20047;-74
2022/03/08 05:50:54;;;;;;;25.77;17.48;;;-3276.30;68.40;;;;;;5047646;28;20695;-74
2022/03/08 05:53:20;;;;;;;27.65;18.23;;;-3276.20;68.60;;;;;;5077403;28;20425;-74
2022/03/08 05:55:45;;;;;;;27.17;18.00;;;-3276.20;68.60;;;;;;5069579;28;20484;-74
2022/03/08 05:58:11;;;;;;;23.52;17.55;;;-3276.10;68.70;;;;;;5072217;28;20032;-75
2022/03/08 06:00:37;;;;;;;26.00;17.63;;;-3276.10;68.80;;;;;;5066083;28;20040;-74
2022/03/08 06:03:03;;;;;;;23.80;18.05;;;-3276.10;69.00;;;;;;5077113;28;20504;-74
2022/03/08 06:05:28;;;;;;;24.88;17.30;;;-3276.10;69.10;;;;;;5070528;28;20066;-74
2022/03/08 06:07:54;;;;;;;28.27;18.30;;;-3276.00;69.10;;;;;;5072798;28;20560;-75
2022/03/08 06:10:19;;;;;;;27.25;18.80;;;-3276.10;69.30;;;;;;5071623;28;20226;-74
2022/03/08 06:12:45;;;;;;;26.05;18.48;;;-3276.00;69.20;;;;;;5070338;28;20115;-74
2022/03/08 06:15:11;;;;;;;24.52;17.73;;;-3276.00;69.30;;;;;;5074011;28;20167;-73
2022/03/08 06:17:37;;;;;;;27.15;18.17;;;-3276.10;69.20;;;;;;5075174;28;20024;-75
2022/03/08 06:20:03;;;;;;;26.13;17.45;;;-3276.10;69.20;;;;;;5077938;28;20042;-75
2022/03/08 06:22:29;;;;;;;30.88;19.20;;;-3276.10;69.10;;;;;;5072269;28;20410;-74
2022/03/08 06:24:54;;;;;;;26.77;17.45;;;-3276.10;69.10;;;;;;5071651;28;20794;-74
2022/03/08 06:27:20;;;;;;;29.00;19.00;;;-3276.10;69.10;;;;;;5071646;28;20035;-75
2022/03/08 06:29:47;;;;;;;30.45;19.45;;;-3276.10;69.00;;;;;;5067553;28;20398;-76
2022/03/08 06:32:12;;;;;;;29.02;18.50;;;-3276.20;69.00;;;;;;5069554;28;20043;-74
2022/03/08 06:34:38;;;;;;;28.75;19.02;;;-3276.20;68.90;;;;;;5075159;28;20036;-71
2022/03/08 06:37:04;;;;;;;32.17;18.08;;;-3276.20;68.90;;;;;;5069117;28;20440;-70
2022/03/08 06:39:30;;;;;;;25.77;17.77;;;-3276.30;68.90;;;;;;5067492;28;20340;-69
2022/03/08 06:41:55;;;;;;;29.13;17.88;;;-3276.40;68.60;;;;;;5089487;28;20854;-71
2022/03/08 06:44:21;;;;;;;23.15;16.90;;;-3276.50;68.30;;;;;;5067320;28;20044;-69
2022/03/08 06:46:47;;;;;;;25.35;17.42;;;-3276.50;68.00;;;;;;5073340;28;20101;-71
2022/03/08 06:49:13;;;;;;;27.52;18.08;;;-3276.60;67.70;;;;;;5074879;28;20593;-70
2022/03/08 06:51:39;;;;;;;26.25;18.58;;;-3276.70;67.50;;;;;;5072636;28;20055;-72
2022/03/08 06:54:06;;;;;;;24.60;16.77;;;-3276.60;67.20;;;;;;5073441;28;20131;-70
2022/03/08 06:56:33;;;;;;;25.40;17.30;;;-3276.70;67.10;;;;;;5070302;28;20043;-70
2022/03/08 06:59:00;;;;;;;24.58;16.77;;;-3276.70;67.20;;;;;;5073774;28;20044;-71
2022/03/08 07:01:25;;;;;;;22.77;16.50;;;0.00;67.20;;;;;;5073586;28;20117;-72
2022/03/08 07:03:51;;;;;;;21.98;15.95;;;0.00;67.30;;;;;;5069534;28;20085;-71
2022/03/08 07:06:17;;;;;;;25.02;17.10;;;0.00;67.10;;;;;;5073841;28;20032;-72
2022/03/08 07:08:43;;;;;;;25.02;17.50;;;0.10;67.00;;;;;;5069462;28;20407;-70
2022/03/08 07:11:09;;;;;;;23.35;16.65;;;0.10;66.80;;;;;;5059106;28;20097;-70
2022/03/08 07:13:35;;;;;;;23.05;17.73;;;0.10;66.90;;;;;;5068881;28;20032;-73
2022/03/08 07:16:01;;;;;;;23.17;16.52;;;0.10;66.70;;;;;;5073960;28;20044;-73
2022/03/08 07:18:27;;;;;;;23.20;16.45;;;0.10;66.50;;;;;;5071750;28;20038;-74
2022/03/08 07:20:53;;;;;;;26.17;17.92;;;0.20;66.40;;;;;;5065169;28;20747;-72
2022/03/08 07:23:19;;;;;;;24.85;16.63;;;0.20;66.30;;;;;;5077302;28;20039;-74
2022/03/08 07:25:45;;;;;;;24.33;16.40;;;0.20;66.30;;;;;;5070513;28;20493;-72
2022/03/08 07:28:10;;;;;;;24.95;17.08;;;0.20;66.40;;;;;;5070669;28;20052;-73
2022/03/08 07:30:36;;;;;;;23.10;15.88;;;0.30;66.50;;;;;;5072302;28;20597;-74
2022/03/08 07:33:03;;;;;;;22.55;16.05;;;0.40;66.50;;;;;;5066541;28;20124;-72
2022/03/08 07:35:28;;;;;;;24.80;17.00;;;0.40;66.20;;;;;;5072520;28;20546;-74
2022/03/08 07:37:54;;;;;;;23.48;16.48;;;0.40;65.80;;;;;;5070435;28;20040;-74
2022/03/08 07:40:20;;;;;;;25.13;17.17;;;0.50;65.50;;;;;;5072353;28;20503;-75
2022/03/08 07:42:46;;;;;;;25.13;16.50;;;0.60;65.20;;;;;;5074065;28;20492;-74
2022/03/08 07:45:12;;;;;;;21.85;16.02;;;0.70;65.30;;;;;;5074555;28;20036;-76
2022/03/08 07:47:38;;;;;;;24.80;16.55;;;0.80;64.90;;;;;;5075341;28;20031;-76
2022/03/08 07:50:06;;;;;;;25.40;17.83;;;0.90;64.70;;;;;;5076998;28;20036;-75
2022/03/08 07:52:32;;;;;;;23.95;16.45;;;1.10;64.20;;;;;;5068126;28;20566;-74
2022/03/08 07:54:58;;;;;;;26.23;16.95;;;1.10;64.00;;;;;;5078017;28;20047;-75
2022/03/08 07:57:23;;;;;;;22.42;16.52;;;1.20;63.80;;;;;;5072301;28;20498;-74
2022/03/08 07:59:49;;;;;;;22.75;15.85;;;1.30;62.80;;;;;;5082680;28;20040;-74
2022/03/08 08:02:15;;;;;;;21.15;15.10;;;1.40;63.10;;;;;;5076432;28;20047;-73
2022/03/08 08:04:41;;;;;;;22.77;16.15;;;1.60;62.40;;;;;;5075940;28;20241;-75
2022/03/08 08:07:07;;;;;;;20.55;14.48;;;1.70;62.30;;;;;;5083946;28;20050;-76
2022/03/08 08:09:33;;;;;;;20.63;15.63;;;1.90;61.50;;;;;;5077576;28;20028;-75
2022/03/08 08:11:59;;;;;;;20.67;14.30;;;2.00;61.20;;;;;;5075519;28;20031;-78
2022/03/08 08:14:25;;;;;;;21.25;14.13;;;2.20;60.30;;;;;;5073345;28;20040;-74
2022/03/08 08:16:51;;;;;;;23.85;14.70;;;2.40;60.00;;;;;;5076063;28;20051;-76
2022/03/08 08:19:17;;;;;;;22.98;14.85;;;2.50;59.40;;;;;;5080597;28;20036;-74
2022/03/08 08:21:43;;;;;;;22.88;14.60;;;2.70;58.30;;;;;;5079701;28;20123;-78
2022/03/08 08:24:09;;;;;;;23.15;14.95;;;2.80;57.50;;;;;;5080023;28;20089;-78
2022/03/08 08:26:35;;;;;;;19.70;13.50;;;2.90;57.40;;;;;;5079480;28;20040;-74
2022/03/08 08:29:02;;;;;;;20.38;14.95;;;3.10;56.70;;;;;;5076504;28;20091;-74
2022/03/08 08:31:30;;;;;;;22.23;13.90;;;3.40;56.30;;;;;;5076953;28;20598;-74
2022/03/08 08:33:56;;;;;;;20.55;13.73;;;3.60;55.40;;;;;;5085980;28;20051;-74
2022/03/08 08:36:22;;;;;;;20.00;13.98;;;3.80;55.40;;;;;;5076829;28;20558;-74
2022/03/08 08:38:48;;;;;;;25.15;14.55;;;4.00;54.50;;;;;;5078390;28;20040;-77
2022/03/08 08:41:14;;;;;;;18.88;14.05;;;4.20;54.10;;;;;;5096908;27;20032;-75
2022/03/08 08:43:40;;;;;;;19.27;14.02;;;4.20;51.80;;;;;;5079234;28;20348;-79
2022/03/08 08:46:06;;;;;;;18.25;13.60;;;4.30;51.00;;;;;;5081291;28;20040;-76
2022/03/08 08:48:32;;;;;;;19.45;14.18;;;4.40;50.00;;;;;;5078511;28;20110;-79
2022/03/08 08:50:58;;;;;;;19.88;13.50;;;4.60;49.90;;;;;;5077900;28;20115;-75
2022/03/08 08:53:24;;;;;;;19.73;14.43;;;4.70;50.10;;;;;;5081489;28;20465;-78
2022/03/08 08:55:50;;;;;;;20.88;14.85;;;4.90;50.30;;;;;;5078422;28;20044;-74
2022/03/08 08:58:16;;;;;;;19.17;15.35;;;4.90;48.00;;;;;;5079814;28;20044;-76
2022/03/08 09:00:42;;;;;;;19.30;14.68;;;5.10;48.50;;;;;;5078487;28;20037;-76
2022/03/08 09:03:14;;;;;;;18.67;14.00;;;5.10;47.60;;;;;;5082879;28;20039;-76
2022/03/08 09:05:45;;;;;;;22.33;15.25;;;5.30;47.20;;;;;;5082727;28;20070;-76
2022/03/08 09:08:14;;;;;;;24.27;15.93;;;5.30;47.30;;;;;;5080645;28;20557;-76
2022/03/08 09:10:40;;;;;;;20.95;15.40;;;5.50;47.10;;;;;;5077749;28;20028;-74
2022/03/08 09:13:06;;;;;;;20.70;14.90;;;5.70;46.20;;;;;;5079660;28;20050;-77
2022/03/08 09:15:33;;;;;;;20.70;14.80;;;5.70;45.30;;;;;;5083568;28;20554;-74
2022/03/08 09:17:59;;;;;;;19.50;14.30;;;5.60;45.40;;;;;;5079459;28;20051;-74
2022/03/08 09:20:26;;;;;;;19.05;15.25;;;5.70;46.50;;;;;;5083111;28;20036;-79
2022/03/08 09:22:55;;;;;;;18.40;14.25;;;5.80;46.10;;;;;;5076243;28;20110;-73
2022/03/08 09:25:22;;;;;;;20.60;15.45;;;5.80;45.30;;;;;;5076670;28;20086;-77
2022/03/08 09:27:48;;;;;;;20.02;14.82;;;5.90;45.40;;;;;;5078120;28;20040;-74
2022/03/08 09:30:15;;;;;;;21.30;14.32;;;6.00;45.00;;;;;;5072745;28;20060;-78
2022/03/08 09:32:41;;;;;;;19.33;14.75;;;5.90;45.00;;;;;;5077915;28;20100;-74
2022/03/08 09:35:08;;;;;;;20.23;15.50;;;5.90;45.10;;;;;;5075662;28;20044;-73
2022/03/08 09:37:34;;;;;;;19.85;14.70;;;5.80;44.80;;;;;;5071907;28;20043;-74
2022/03/08 09:40:00;;;;;;;18.20;15.20;;;6.00;45.30;;;;;;5072718;28;20067;-74
2022/03/08 09:42:27;;;;;;;20.00;15.20;;;6.10;44.90;;;;;;5081041;28;20487;-75
2022/03/08 09:44:53;;;;;;;19.65;16.25;;;6.30;45.60;;;;;;5070240;28;20494;-74
2022/03/08 09:47:19;;;;;;;20.50;15.77;;;6.20;44.60;;;;;;5078879;28;20044;-75
2022/03/08 09:49:45;;;;;;;22.50;15.18;;;6.20;44.60;;;;;;5081221;28;20047;-72
2022/03/08 09:52:11;;;;;;;23.90;15.98;;;6.20;43.90;;;;;;5077928;28;20444;-76
2022/03/08 09:54:37;;;;;;;20.52;15.45;;;6.30;44.60;;;;;;5074295;28;20028;-74
2022/03/08 09:57:15;;;;;;;22.73;16.50;;;6.40;44.90;;;;;;5077922;28;20036;-74
2022/03/08 09:59:42;;;;;;;20.92;16.10;;;6.50;44.80;;;;;;5081866;28;20036;-78
2022/03/08 10:02:13;;;;;;;24.23;16.92;;;6.60;44.40;;;;;;5077113;28;20025;-75
2022/03/08 10:04:39;;;;;;;23.90;17.70;;;6.80;44.70;;;;;;5081348;28;20123;-77
2022/03/08 10:07:09;;;;;;;21.90;16.45;;;6.90;44.20;;;;;;5077076;28;20122;-77
2022/03/08 10:09:35;;;;;;;20.60;17.02;;;7.00;44.10;;;;;;5071632;28;20544;-74
2022/03/08 10:12:01;;;;;;;22.40;17.05;;;7.10;42.60;;;;;;5074217;27;20483;-75
2022/03/08 10:14:38;;;;;;;20.70;16.33;;;7.10;43.10;;;;;;5068358;28;20458;-74
2022/03/08 10:17:05;;;;;;;24.02;17.98;;;7.20;42.90;;;;;;5071285;28;20399;-75
2022/03/08 10:19:49;;;;;;;23.95;17.58;;;7.10;42.30;;;;;;5078313;28;20046;-75
2022/03/08 10:22:39;;;;;;;22.40;17.67;;;7.10;43.00;;;;;;5074964;28;20048;-76
2022/03/08 10:25:12;;;;;;;23.95;16.30;;;7.20;42.60;;;;;;5063459;28;20032;-76
2022/03/08 10:28:01;;;;;;;23.50;17.20;;;7.30;42.60;;;;;;5071317;28;20115;-79
2022/03/08 10:30:48;;;;;;;22.58;18.15;;;7.50;43.10;;;;;;5065240;28;20048;-75
2022/03/08 10:33:21;;;;;;;24.00;17.98;;;7.50;41.80;;;;;;5071137;28;20059;-72
2022/03/08 10:35:51;;;;;;;22.23;17.52;;;7.60;41.90;;;;;;5074286;28;20122;-78
2022/03/08 10:38:16;;;;;;;24.42;17.42;;;7.80;42.80;;;;;;5076769;28;20085;-79
2022/03/08 10:40:43;;;;;;;22.52;17.35;;;7.80;41.30;;;;;;5078645;28;20040;-75
2022/03/08 10:43:14;;;;;;;23.70;18.65;;;7.60;42.00;;;;;;5081600;28;20585;-79
2022/03/08 10:45:49;;;;;;;24.75;18.15;;;7.60;41.80;;;;;;5081420;28;20024;-78
2022/03/08 10:48:18;;;;;;;22.63;18.65;;;7.80;43.00;;;;;;5086062;28;20507;-76
2022/03/08 10:50:46;;;;;;;21.33;17.05;;;7.90;42.30;;;;;;5082109;28;20024;-74
2022/03/08 10:53:13;;;;;;;23.30;19.05;;;8.00;41.70;;;;;;5083393;28;20036;-75
2022/03/08 10:55:50;;;;;;;25.23;18.63;;;8.10;42.00;;;;;;5081010;28;20134;-74
2022/03/08 10:58:17;;;;;;;22.20;17.73;;;8.10;40.90;;;;;;5077961;28;20092;-76
2022/03/08 11:00:46;;;;;;;23.23;18.25;;;8.20;41.50;;;;;;5074855;28;20043;-74
2022/03/08 11:03:18;;;;;;;23.35;17.77;;;8.20;40.30;;;;;;5080942;28;20749;-74
2022/03/08 11:05:55;;;;;;;22.17;18.05;;;8.40;41.70;;;;;;5070112;28;20032;-73
2022/03/08 11:08:30;;;;;;;26.10;18.52;;;8.40;40.80;;;;;;5066971;28;20039;-76
2022/03/08 11:10:56;;;;;;;26.15;18.33;;;8.20;41.30;;;;;;5071025;28;20401;-74
2022/03/08 11:13:21;;;;;;;27.65;18.67;;;8.30;41.60;;;;;;5076951;28;20036;-77
2022/03/08 11:15:47;;;;;;;23.90;18.52;;;8.40;41.30;;;;;;5073891;28;20047;-74
2022/03/08 11:18:14;;;;;;;26.30;19.25;;;8.40;40.80;;;;;;5072793;28;20032;-75
2022/03/08 11:20:44;;;;;;;24.33;18.33;;;8.60;40.40;;;;;;5065226;28;20097;-73
2022/03/08 11:23:11;;;;;;;22.20;18.17;;;8.60;40.60;;;;;;5067987;28;20187;-77
2022/03/08 11:25:44;;;;;;;27.83;21.13;;;8.80;41.00;;;;;;5068644;28;20037;-75
2022/03/08 11:28:10;;;;;;;25.17;18.77;;;9.00;40.10;;;;;;5075115;28;20142;-75
2022/03/08 11:31:00;;;;;;;24.73;18.55;;;9.10;40.30;;;;;;5073090;28;20039;-76
2022/03/08 11:33:58;;;;;;;26.05;19.17;;;8.90;40.20;;;;;;5067121;28;20214;-74
2022/03/08 11:36:35;;;;;;;22.10;18.45;;;8.60;39.90;;;;;;5058228;28;20558;-76
2022/03/08 11:39:19;;;;;;;23.90;18.02;;;8.70;40.30;;;;;;5055136;28;20471;-76
2022/03/08 11:42:36;;;;;;;24.00;18.33;;;8.90;41.10;;;;;;5070696;28;20028;-75
2022/03/08 11:45:11;;;;;;;24.27;18.55;;;9.10;41.10;;;;;;5066827;28;20517;-77
2022/03/08 11:47:44;;;;;;;25.83;18.83;;;9.30;40.90;;;;;;5072046;28;20485;-75
2022/03/08 11:50:33;;;;;;;22.98;18.02;;;9.40;40.50;;;;;;5071145;28;20081;-78
2022/03/08 11:53:08;;;;;;;26.08;18.45;;;9.60;39.80;;;;;;5072257;28;20031;-74
2022/03/08 11:55:40;;;;;;;24.25;19.35;;;9.50;39.20;;;;;;5071164;28;20124;-74
2022/03/08 11:58:09;;;;;;;23.17;17.63;;;9.40;39.40;;;;;;5072523;28;20123;-77
2022/03/08 12:00:48;;;;;;;22.42;18.48;;;9.40;40.00;;;;;;5073355;28;20093;-74
2022/03/08 12:03:38;;;;;;;23.92;19.05;;;9.50;39.90;;;;;;5071203;28;20169;-78
2022/03/08 12:06:06;;;;;;;20.92;17.83;;;9.70;40.10;;;;;;5072374;28;20502;-74
2022/03/08 12:08:31;;;;;;;26.20;19.75;;;9.60;39.70;;;;;;5074028;28;20032;-76
2022/03/08 12:11:07;;;;;;;24.40;18.70;;;9.70;39.90;;;;;;5091518;27;20069;-76
2022/03/08 12:13:35;;;;;;;25.20;19.65;;;9.70;40.00;;;;;;5071849;28;20551;-79
2022/03/08 12:16:08;;;;;;;22.05;17.85;;;9.80;40.10;;;;;;5078066;28;20044;-77
2022/03/08 12:18:34;;;;;;;25.10;18.45;;;9.90;39.60;;;;;;5072624;28;20048;-77
2022/03/08 12:21:18;;;;;;;23.77;19.10;;;10.00;39.40;;;;;;5077256;28;20050;-76
2022/03/08 12:23:50;;;;;;;25.80;19.75;;;10.00;38.70;;;;;;5073620;28;20415;-76
2022/03/08 12:26:41;;;;;;;24.27;18.85;;;10.10;38.30;;;;;;5077323;28;20045;-76
2022/03/08 12:29:07;;;;;;;23.00;18.55;;;10.10;37.80;;;;;;5080165;28;20040;-76
2022/03/08 12:31:53;;;;;;;23.70;19.27;;;10.00;38.00;;;;;;5080473;28;20059;-76